当前位置: 首页>>5xsq1新网站 >>KMI-030磁力链 欧美啊v 欧美z00sko0lpi9z00马

KMI-030磁力链 欧美啊v 欧美z00sko0lpi9z00马

添加时间:    

青春!ブルマー 3 みはる
ac030最佳答案: 我儿子一直在学 已经两年了 之前我也是听朋友说好多,就学了,交了年费 ,长期看对孩子动手、动脑和好习惯的养成很有帮助。我儿子原来独立性差,不爱思考更多关于KMI-030的问题>>
尿比重1.0302018年12月21日 -  LENORD+BAUER 编码器 GEL2443KMIG5K030 LENORD+BAUER 编码器 GEL2442KN1R3K600-E LENORD+BAUER 编码器 GEL208-V-00025F041S LENORD+BAUER 编码器 GEL
KMI色墨,稀释剂,光油KMI-R020,蓝色KMI-V300,紫色KMI-M350,品红色KMI-L010,超黑KMI-L020,不透明黑KMI-L030
尿比重1.030严重吗RFMV80 004-02 金二车间 1.55.5 030 数控加工中心 RFMV80 004-03 金二车间 KMI编号 2009 注:红色表示故障
0010302018年12月29日 - KMI / RJFM 天气 (KMI / RJFM 更多天气信息) RJFM 290700Z 27015KT 9999 FEW030 09/M09 Q10252018/12/29 06:00RJFM 290509Z 2906/3012 27015KT 9999
KMI系列UV固化丝网印刷油墨是专门为目前广泛应用的KMI-L030,调色黑 KMI-W030,调色白 KMI-W050,高不透明白
JB-027,JB-030,JUFD-340,KMI-002,KMI-010,KMI-046,RSP-002,RSP-003@_Q_6_3.76.00.97.wmv,文件大小:,迅雷
KMI-L030,调色黑 KMI-W030,调色白 KMI-W050,高不透明白 KMI-THIN,稀释剂 KMI-OPVC,表面光油 KMI-MIXC,调色
全国包邮DELTA 备件 SM52-AR-60德国当前价格:99 最小起订:1所在地址:安徽省滁州市发布时间:有效期至:180手机号码:1321808****查看完整电话× 完整电话
KMI-W030,调色白 KMI-W050,高不透明白 KMI-THIN,稀释剂 KMI-OPVC,表面光油 KMI-MIXC,调色光油 测试 在进行
Αv片资源吧首页800更新最快内容最全的绿的在线视频,每天为大家更新国产视频、日韩视频、欧美视频等Αv片

随机推荐

网站导航 福利地图